createdAt,value
2023-03-05T00:00:34.649Z,4.50
2023-03-05T00:03:01.254Z,4.80
2023-03-05T00:05:27.843Z,4.90
2023-03-05T00:07:54.405Z,5.00
2023-03-05T00:10:20.999Z,4.80
2023-03-05T00:12:47.621Z,4.50
2023-03-05T00:15:14.235Z,3.70
2023-03-05T00:17:40.953Z,3.90
2023-03-05T00:20:07.501Z,3.80
2023-03-05T00:22:34.095Z,3.60
2023-03-05T00:25:00.664Z,3.90
2023-03-05T00:27:27.254Z,4.10
2023-03-05T00:29:53.822Z,4.10
2023-03-05T00:32:20.416Z,4.30
2023-03-05T00:34:47.076Z,4.30
2023-03-05T00:37:13.853Z,4.30
2023-03-05T00:39:40.454Z,4.20
2023-03-05T00:42:07.046Z,3.10
2023-03-05T00:44:33.625Z,3.00
2023-03-05T00:47:00.230Z,3.50
2023-03-05T00:49:26.786Z,3.70
2023-03-05T00:51:53.407Z,3.40
2023-03-05T00:54:19.963Z,3.70
2023-03-05T00:56:48.713Z,3.90
2023-03-05T00:59:15.286Z,4.10
2023-03-05T01:01:42.095Z,4.30
2023-03-05T01:04:08.689Z,4.30
2023-03-05T01:06:35.401Z,4.10
2023-03-05T01:09:01.975Z,3.60
2023-03-05T01:11:28.588Z,2.80
2023-03-05T01:13:55.221Z,2.50
2023-03-05T01:16:21.846Z,2.90
2023-03-05T01:18:48.519Z,3.20
2023-03-05T01:21:15.105Z,3.50
2023-03-05T01:23:41.704Z,3.40
2023-03-05T01:26:08.264Z,3.10
2023-03-05T01:28:34.815Z,3.40
2023-03-05T01:31:01.450Z,3.60
2023-03-05T01:33:28.044Z,3.30
2023-03-05T01:35:54.636Z,3.40
2023-03-05T01:38:21.253Z,3.40
2023-03-05T01:40:47.867Z,3.20
2023-03-05T01:43:14.465Z,2.90
2023-03-05T01:45:41.352Z,2.80
2023-03-05T01:48:07.943Z,2.70
2023-03-05T01:50:34.506Z,3.10
2023-03-05T01:53:01.119Z,3.00
2023-03-05T01:55:27.705Z,3.20
2023-03-05T01:57:54.300Z,2.80
2023-03-05T02:00:21.169Z,3.10
2023-03-05T02:02:47.759Z,2.90
2023-03-05T02:05:14.346Z,3.10
2023-03-05T02:07:41.024Z,3.20
2023-03-05T02:10:07.684Z,2.80
2023-03-05T02:12:34.278Z,2.90
2023-03-05T02:15:00.833Z,2.80
2023-03-05T02:17:28.284Z,2.60
2023-03-05T02:19:54.868Z,2.80
2023-03-05T02:22:21.435Z,3.00
2023-03-05T02:24:48.008Z,2.90
2023-03-05T02:27:14.606Z,2.80
2023-03-05T02:29:41.182Z,2.70
2023-03-05T02:32:07.887Z,2.50
2023-03-05T02:34:34.711Z,2.60
2023-03-05T02:37:01.337Z,2.90
2023-03-05T02:39:27.915Z,2.80
2023-03-05T02:41:54.486Z,2.80
2023-03-05T02:44:21.165Z,2.80
2023-03-05T02:46:47.762Z,2.30
2023-03-05T02:49:14.347Z,1.90
2023-03-05T02:51:40.958Z,1.80
2023-03-05T02:54:07.558Z,1.90
2023-03-05T02:56:34.149Z,2.10
2023-03-05T02:59:00.738Z,2.10
2023-03-05T03:01:27.380Z,2.40
2023-03-05T03:03:53.963Z,2.60
2023-03-05T03:06:20.537Z,1.90
2023-03-05T03:08:47.145Z,1.90
2023-03-05T03:11:13.718Z,1.70
2023-03-05T03:13:40.321Z,1.80
2023-03-05T03:16:06.883Z,1.80
2023-03-05T03:18:33.516Z,2.10
2023-03-05T03:21:00.107Z,2.00
2023-03-05T03:23:26.894Z,1.80
2023-03-05T03:25:53.493Z,2.20
2023-03-05T03:28:20.066Z,1.80
2023-03-05T03:30:46.787Z,1.70
2023-03-05T03:33:13.356Z,1.70
2023-03-05T03:35:40.129Z,2.10
2023-03-05T03:38:06.826Z,2.20
2023-03-05T03:40:33.475Z,2.20
2023-03-05T03:43:00.040Z,2.40
2023-03-05T03:45:26.637Z,2.50
2023-03-05T03:47:53.199Z,2.40
2023-03-05T03:50:19.840Z,2.40
2023-03-05T03:52:46.481Z,2.40
2023-03-05T03:55:13.041Z,2.60
2023-03-05T03:57:39.645Z,2.60
2023-03-05T04:00:06.206Z,2.70
2023-03-05T04:02:32.806Z,2.40
2023-03-05T04:04:59.408Z,2.40
2023-03-05T04:07:25.967Z,2.50
2023-03-05T04:09:52.570Z,2.60
2023-03-05T04:12:19.140Z,2.50
2023-03-05T04:14:45.708Z,2.30
2023-03-05T04:17:12.313Z,2.10
2023-03-05T04:19:38.873Z,2.00
2023-03-05T04:22:05.487Z,1.70
2023-03-05T04:24:32.042Z,1.60
2023-03-05T04:26:58.680Z,1.90
2023-03-05T04:29:25.272Z,1.50
2023-03-05T04:31:51.850Z,1.10
2023-03-05T04:34:18.433Z,1.40
2023-03-05T04:36:45.011Z,1.70
2023-03-05T04:39:11.801Z,1.70
2023-03-05T04:41:38.375Z,1.50
2023-03-05T04:44:04.937Z,1.60
2023-03-05T04:46:31.590Z,1.90
2023-03-05T04:48:58.201Z,1.70
2023-03-05T04:51:24.815Z,1.70
2023-03-05T04:53:51.391Z,1.20
2023-03-05T04:56:18.008Z,1.40
2023-03-05T04:58:44.606Z,1.60
2023-03-05T05:01:11.198Z,1.00
2023-03-05T05:03:37.779Z,0.90
2023-03-05T05:06:04.377Z,0.90
2023-03-05T05:08:30.959Z,1.30
2023-03-05T05:10:57.541Z,1.70
2023-03-05T05:13:24.121Z,1.60
2023-03-05T05:15:50.696Z,1.50
2023-03-05T05:18:17.263Z,1.70
2023-03-05T05:20:43.831Z,1.80
2023-03-05T05:23:10.395Z,1.90
2023-03-05T05:25:36.984Z,2.10
2023-03-05T05:28:03.574Z,2.10
2023-03-05T05:30:30.315Z,2.10
2023-03-05T05:32:56.953Z,2.10
2023-03-05T05:35:23.573Z,2.10
2023-03-05T05:37:50.169Z,2.10
2023-03-05T05:40:16.843Z,1.90
2023-03-05T05:42:43.411Z,1.60
2023-03-05T05:45:10.036Z,1.90
2023-03-05T05:47:36.664Z,1.80
2023-03-05T05:50:03.222Z,1.60
2023-03-05T05:52:29.813Z,1.40
2023-03-05T05:54:56.365Z,1.60
2023-03-05T05:57:22.960Z,1.60
2023-03-05T05:59:49.902Z,1.50
2023-03-05T06:02:16.574Z,1.90
2023-03-05T06:04:43.213Z,2.10
2023-03-05T06:07:09.908Z,1.90
2023-03-05T06:09:36.506Z,1.60
2023-03-05T06:12:03.082Z,2.00
2023-03-05T06:14:29.726Z,2.20
2023-03-05T06:16:56.394Z,2.30
2023-03-05T06:19:23.056Z,1.20
2023-03-05T06:21:49.625Z,1.60
2023-03-05T06:24:16.225Z,1.70
2023-03-05T06:26:42.808Z,2.00
2023-03-05T06:29:12.644Z,2.20
2023-03-05T06:31:39.241Z,2.30
2023-03-05T06:34:05.881Z,2.70
2023-03-05T06:36:32.480Z,2.80
2023-03-05T06:38:59.060Z,2.80
2023-03-05T06:41:25.665Z,3.00
2023-03-05T06:43:52.247Z,3.20
2023-03-05T06:46:19.053Z,2.80
2023-03-05T06:48:45.646Z,2.60
2023-03-05T06:51:12.250Z,2.20
2023-03-05T06:53:38.892Z,1.90
2023-03-05T06:56:05.455Z,2.60
2023-03-05T06:58:32.048Z,3.10
2023-03-05T07:00:58.659Z,3.30
2023-03-05T07:03:25.258Z,3.60
2023-03-05T07:05:51.834Z,3.50
2023-03-05T07:08:18.425Z,3.00
2023-03-05T07:10:44.999Z,3.10
2023-03-05T07:13:11.570Z,3.30
2023-03-05T07:15:38.242Z,3.80
2023-03-05T07:18:04.864Z,3.80
2023-03-05T07:20:31.457Z,3.70
2023-03-05T07:22:58.037Z,4.00
2023-03-05T07:25:24.669Z,4.30
2023-03-05T07:27:51.259Z,4.50
2023-03-05T07:30:17.812Z,3.70
2023-03-05T07:32:44.395Z,3.50
2023-03-05T07:35:10.950Z,3.80
2023-03-05T07:37:37.826Z,4.40
2023-03-05T07:40:04.581Z,4.20
2023-03-05T07:42:31.285Z,4.10
2023-03-05T07:44:57.958Z,4.30
2023-03-05T07:47:24.524Z,5.00
2023-03-05T07:49:51.116Z,4.90
2023-03-05T07:52:17.723Z,4.80
2023-03-05T07:54:44.300Z,4.50
2023-03-05T07:57:10.904Z,4.80
2023-03-05T07:59:37.577Z,5.20
2023-03-05T08:02:04.186Z,5.40
2023-03-05T08:04:30.793Z,5.70
2023-03-05T08:06:57.407Z,5.50
2023-03-05T08:09:23.985Z,5.60
2023-03-05T08:11:50.545Z,5.80
2023-03-05T08:14:17.131Z,5.50
2023-03-05T08:16:44.518Z,5.90
2023-03-05T08:19:11.888Z,6.30
2023-03-05T08:21:38.502Z,6.40
2023-03-05T08:24:05.084Z,6.50
2023-03-05T08:26:31.705Z,6.50
2023-03-05T08:28:58.282Z,5.90
2023-03-05T08:31:24.936Z,6.40
2023-03-05T08:33:51.519Z,6.60
2023-03-05T08:36:18.117Z,7.00
2023-03-05T08:38:44.728Z,7.10
2023-03-05T08:41:11.329Z,7.30
2023-03-05T08:43:37.927Z,7.40
2023-03-05T08:46:04.736Z,7.40
2023-03-05T08:48:31.307Z,7.70
2023-03-05T08:50:57.919Z,7.70
2023-03-05T08:53:24.498Z,7.80
2023-03-05T08:55:51.267Z,7.70
2023-03-05T08:58:17.848Z,7.80
2023-03-05T09:00:44.460Z,7.90
2023-03-05T09:03:11.067Z,8.30
2023-03-05T09:05:39.083Z,8.20
2023-03-05T09:08:07.722Z,8.30
2023-03-05T09:10:34.361Z,8.00
2023-03-05T09:13:00.960Z,8.10
2023-03-05T09:15:27.556Z,8.30
2023-03-05T09:17:54.155Z,8.40
2023-03-05T09:20:20.747Z,8.60
2023-03-05T09:22:47.317Z,8.90
2023-03-05T09:25:13.921Z,9.30
2023-03-05T09:27:40.524Z,9.00
2023-03-05T09:30:07.222Z,8.60
2023-03-05T09:32:33.803Z,8.70
2023-03-05T09:35:00.398Z,8.70
2023-03-05T09:37:27.010Z,8.50
2023-03-05T09:39:53.675Z,8.60
2023-03-05T09:42:20.493Z,8.90
2023-03-05T09:44:47.090Z,9.50
2023-03-05T09:47:14.707Z,9.80
2023-03-05T09:49:41.444Z,9.70
2023-03-05T09:52:08.047Z,9.80
2023-03-05T09:54:34.638Z,9.60
2023-03-05T09:57:01.223Z,10.00
2023-03-05T09:59:27.813Z,10.30
2023-03-05T10:01:54.386Z,10.10
2023-03-05T10:04:21.187Z,10.30
2023-03-05T10:06:47.803Z,10.20
2023-03-05T10:09:14.365Z,10.00
2023-03-05T10:11:40.996Z,9.90
2023-03-05T10:14:07.586Z,10.60
2023-03-05T10:16:35.225Z,10.60
2023-03-05T10:19:01.794Z,10.80
2023-03-05T10:21:28.451Z,10.80
2023-03-05T10:23:55.072Z,10.70
2023-03-05T10:26:21.678Z,10.50
2023-03-05T10:28:48.270Z,10.80
2023-03-05T10:31:14.912Z,10.70
2023-03-05T10:33:41.487Z,10.30
2023-03-05T10:36:08.094Z,10.60
2023-03-05T10:38:34.679Z,10.70
2023-03-05T10:41:01.292Z,10.30
2023-03-05T10:43:27.910Z,10.60
2023-03-05T10:45:54.572Z,10.80
2023-03-05T10:48:21.197Z,10.90
2023-03-05T10:50:47.773Z,11.60
2023-03-05T10:53:14.401Z,12.30
2023-03-05T10:55:40.971Z,11.80
2023-03-05T10:58:07.618Z,11.60
2023-03-05T11:00:34.175Z,11.30
2023-03-05T11:03:00.785Z,11.70
2023-03-05T11:05:27.358Z,11.70
2023-03-05T11:07:53.951Z,11.40
2023-03-05T11:10:20.508Z,11.80
2023-03-05T11:12:47.115Z,12.10
2023-03-05T11:15:13.719Z,12.50
2023-03-05T11:17:40.609Z,12.60
2023-03-05T11:20:07.240Z,12.10
2023-03-05T11:22:33.812Z,12.20
2023-03-05T11:25:00.410Z,12.00
2023-03-05T11:27:27.157Z,11.30
2023-03-05T11:29:53.757Z,11.60
2023-03-05T11:32:20.418Z,11.90
2023-03-05T11:34:47.078Z,11.70
2023-03-05T11:37:13.677Z,12.00
2023-03-05T11:39:40.233Z,11.40
2023-03-05T11:42:06.834Z,11.30
2023-03-05T11:44:33.414Z,11.50
2023-03-05T11:46:59.992Z,11.50
2023-03-05T11:49:26.550Z,11.50
2023-03-05T11:51:53.163Z,11.20
2023-03-05T11:54:19.760Z,11.60
2023-03-05T11:56:46.411Z,11.90
2023-03-05T11:59:13.000Z,11.80
2023-03-05T12:01:39.588Z,12.20
2023-03-05T12:04:06.251Z,12.00
2023-03-05T12:06:32.825Z,12.40
2023-03-05T12:08:59.435Z,12.70
2023-03-05T12:11:26.001Z,12.40
2023-03-05T12:13:52.594Z,11.90
2023-03-05T12:16:19.264Z,12.10
2023-03-05T12:18:45.925Z,11.80
2023-03-05T12:21:12.518Z,11.90
2023-03-05T12:23:39.541Z,11.30
2023-03-05T12:26:06.709Z,11.50
2023-03-05T12:28:33.275Z,11.70
2023-03-05T12:30:59.903Z,11.90
2023-03-05T12:33:28.654Z,12.00
2023-03-05T12:35:55.250Z,12.50
2023-03-05T12:38:27.038Z,12.70
2023-03-05T12:40:53.839Z,13.10
2023-03-05T12:43:20.411Z,12.60
2023-03-05T12:45:47.030Z,12.60
2023-03-05T12:48:13.625Z,13.00
2023-03-05T12:50:40.216Z,13.20
2023-03-05T12:53:06.888Z,13.20
2023-03-05T12:55:33.504Z,13.10
2023-03-05T12:58:00.160Z,13.30
2023-03-05T13:00:26.744Z,13.30
2023-03-05T13:02:53.348Z,13.80
2023-03-05T13:05:19.932Z,13.40
2023-03-05T13:07:46.627Z,13.80
2023-03-05T13:10:16.024Z,13.60
2023-03-05T13:12:42.711Z,13.40
2023-03-05T13:15:09.273Z,14.00
2023-03-05T13:17:35.865Z,13.80
2023-03-05T13:20:02.440Z,13.30
2023-03-05T13:22:28.999Z,13.40
2023-03-05T13:24:55.583Z,13.90
2023-03-05T13:27:23.187Z,14.20
2023-03-05T13:29:49.965Z,14.30
2023-03-05T13:32:16.592Z,14.00
2023-03-05T13:34:47.500Z,13.60
2023-03-05T13:37:14.518Z,13.60
2023-03-05T13:39:41.076Z,13.10
2023-03-05T13:42:07.648Z,12.80
2023-03-05T13:44:34.237Z,12.70
2023-03-05T13:47:03.041Z,12.60
2023-03-05T13:49:29.649Z,12.80
2023-03-05T13:51:56.241Z,13.30
2023-03-05T13:54:22.820Z,13.60
2023-03-05T13:56:49.409Z,14.10
2023-03-05T13:59:16.008Z,13.90
2023-03-05T14:01:42.573Z,14.20
2023-03-05T14:04:09.243Z,14.20
2023-03-05T14:06:35.853Z,14.40
2023-03-05T14:09:02.486Z,14.40
2023-03-05T14:11:29.097Z,14.00
2023-03-05T14:13:55.694Z,14.00
2023-03-05T14:16:22.498Z,14.30
2023-03-05T14:18:49.117Z,14.20
2023-03-05T14:21:15.727Z,14.70
2023-03-05T14:23:42.293Z,13.90
2023-03-05T14:26:08.932Z,13.50
2023-03-05T14:28:35.523Z,13.50
2023-03-05T14:31:02.164Z,14.10
2023-03-05T14:33:28.765Z,14.10
2023-03-05T14:35:55.442Z,14.10
2023-03-05T14:38:22.025Z,13.00
2023-03-05T14:40:48.626Z,13.60
2023-03-05T14:43:15.203Z,13.90
2023-03-05T14:45:41.858Z,13.30
2023-03-05T14:48:08.464Z,13.30
2023-03-05T14:50:35.036Z,13.80
2023-03-05T14:53:01.655Z,13.70
2023-03-05T14:55:28.423Z,13.80
2023-03-05T14:57:55.124Z,14.20
2023-03-05T15:00:21.719Z,14.50
2023-03-05T15:02:48.376Z,14.70
2023-03-05T15:05:14.959Z,14.40
2023-03-05T15:07:41.608Z,13.80
2023-03-05T15:10:08.291Z,13.80
2023-03-05T15:12:34.884Z,13.90
2023-03-05T15:15:01.528Z,14.00
2023-03-05T15:17:28.125Z,14.30
2023-03-05T15:19:54.694Z,12.90
2023-03-05T15:22:21.247Z,12.10
2023-03-05T15:24:47.845Z,12.10
2023-03-05T15:27:14.652Z,12.50
2023-03-05T15:29:41.291Z,13.00
2023-03-05T15:32:07.931Z,13.40
2023-03-05T15:34:34.563Z,13.30
2023-03-05T15:37:01.142Z,13.30
2023-03-05T15:39:27.779Z,13.00
2023-03-05T15:41:54.390Z,12.00
2023-03-05T15:44:20.975Z,11.20
2023-03-05T15:46:47.670Z,11.30
2023-03-05T15:49:14.623Z,11.40
2023-03-05T15:51:41.243Z,10.60
2023-03-05T15:54:07.843Z,10.80
2023-03-05T15:56:34.427Z,10.80
2023-03-05T15:59:00.995Z,10.50
2023-03-05T16:01:27.629Z,10.90
2023-03-05T16:03:54.236Z,11.20
2023-03-05T16:06:20.999Z,11.30
2023-03-05T16:08:47.617Z,11.50
2023-03-05T16:11:14.194Z,11.40
2023-03-05T16:13:40.805Z,11.30
2023-03-05T16:16:07.464Z,11.00
2023-03-05T16:18:34.080Z,11.10
2023-03-05T16:21:00.983Z,11.30
2023-03-05T16:23:27.582Z,11.10
2023-03-05T16:25:54.210Z,10.80
2023-03-05T16:28:20.781Z,10.70
2023-03-05T16:30:47.378Z,10.70
2023-03-05T16:33:13.936Z,10.20
2023-03-05T16:35:40.555Z,9.80
2023-03-05T16:38:07.139Z,9.80
2023-03-05T16:40:56.546Z,10.00
2023-03-05T16:43:20.304Z,9.80
2023-03-05T16:45:46.962Z,9.50
2023-03-05T16:48:13.537Z,9.80
2023-03-05T16:50:40.161Z,10.30
2023-03-05T16:53:06.755Z,10.40
2023-03-05T16:55:33.330Z,10.20
2023-03-05T16:57:59.939Z,9.70
2023-03-05T17:00:26.517Z,9.60
2023-03-05T17:02:53.126Z,9.60
2023-03-05T17:05:19.701Z,9.50
2023-03-05T17:07:46.304Z,9.10
2023-03-05T17:10:12.870Z,9.10
2023-03-05T17:12:39.436Z,9.20
2023-03-05T17:15:06.047Z,9.20
2023-03-05T17:17:32.608Z,9.10
2023-03-05T17:19:59.210Z,9.30
2023-03-05T17:22:25.774Z,9.50
2023-03-05T17:24:52.463Z,9.90
2023-03-05T17:27:19.099Z,9.70
2023-03-05T17:29:45.690Z,9.90
2023-03-05T17:32:12.348Z,9.70
2023-03-05T17:34:39.155Z,9.40
2023-03-05T17:37:05.722Z,9.20
2023-03-05T17:39:32.281Z,9.40
2023-03-05T17:41:58.907Z,9.60
2023-03-05T17:44:25.498Z,9.80
2023-03-05T17:46:52.137Z,9.70
2023-03-05T17:49:18.752Z,9.70
2023-03-05T17:51:45.355Z,9.70
2023-03-05T17:54:11.939Z,9.70
2023-03-05T17:56:38.547Z,9.70
2023-03-05T17:59:05.114Z,9.50
2023-03-05T18:01:31.853Z,9.40
2023-03-05T18:03:58.518Z,9.00
2023-03-05T18:06:25.245Z,8.80
2023-03-05T18:08:51.815Z,9.00
2023-03-05T18:11:18.498Z,8.70
2023-03-05T18:13:45.081Z,8.60
2023-03-05T18:16:11.697Z,8.70
2023-03-05T18:18:38.325Z,8.70
2023-03-05T18:21:04.924Z,8.80
2023-03-05T18:23:31.503Z,8.90
2023-03-05T18:25:58.250Z,9.00
2023-03-05T18:28:24.839Z,9.00
2023-03-05T18:30:51.468Z,9.00
2023-03-05T18:33:18.221Z,8.70
2023-03-05T18:35:44.925Z,8.40
2023-03-05T18:38:11.599Z,8.30
2023-03-05T18:40:38.165Z,8.10
2023-03-05T18:43:04.776Z,8.20
2023-03-05T18:45:31.336Z,7.90
2023-03-05T18:47:57.958Z,8.10
2023-03-05T18:50:24.553Z,7.90
2023-03-05T18:52:51.143Z,7.90
2023-03-05T18:55:18.247Z,8.10
2023-03-05T18:57:44.829Z,8.20
2023-03-05T19:00:11.402Z,8.30
2023-03-05T19:02:38.057Z,8.20
2023-03-05T19:05:04.711Z,7.90
2023-03-05T19:07:31.316Z,7.90
2023-03-05T19:09:59.644Z,7.80
2023-03-05T19:12:26.421Z,7.80
2023-03-05T19:14:53.036Z,7.90
2023-03-05T19:17:19.643Z,8.10
2023-03-05T19:19:46.226Z,8.40
2023-03-05T19:22:12.827Z,8.30
2023-03-05T19:24:39.384Z,8.10
2023-03-05T19:27:05.950Z,8.00
2023-03-05T19:29:32.563Z,7.60
2023-03-05T19:31:59.163Z,7.50
2023-03-05T19:34:25.775Z,7.60
2023-03-05T19:36:52.565Z,7.80
2023-03-05T19:39:19.138Z,8.00
2023-03-05T19:41:46.045Z,7.60
2023-03-05T19:44:12.642Z,7.80
2023-03-05T19:46:39.310Z,7.50
2023-03-05T19:49:06.159Z,7.50
2023-03-05T19:51:32.930Z,7.50
2023-03-05T19:53:59.561Z,7.50
2023-03-05T19:56:26.176Z,7.40
2023-03-05T19:58:52.746Z,7.40
2023-03-05T20:01:19.422Z,7.20
2023-03-05T20:03:46.017Z,7.20
2023-03-05T20:06:12.599Z,7.10
2023-03-05T20:08:39.234Z,6.90
2023-03-05T20:11:05.798Z,6.80
2023-03-05T20:13:32.462Z,6.70
2023-03-05T20:15:59.134Z,6.80
2023-03-05T20:18:25.797Z,6.80
2023-03-05T20:20:52.405Z,6.70
2023-03-05T20:23:18.983Z,6.60
2023-03-05T20:25:45.533Z,6.70
2023-03-05T20:28:12.127Z,6.80
2023-03-05T20:30:38.718Z,6.80
2023-03-05T20:33:05.311Z,6.90
2023-03-05T20:35:31.933Z,6.80
2023-03-05T20:37:58.560Z,6.80
2023-03-05T20:40:25.137Z,6.60
2023-03-05T20:42:51.798Z,6.60
2023-03-05T20:45:18.411Z,6.60
2023-03-05T20:47:44.989Z,6.70
2023-03-05T20:50:11.594Z,6.80
2023-03-05T20:52:38.223Z,6.80
2023-03-05T20:55:04.832Z,7.00
2023-03-05T20:57:31.400Z,7.40
2023-03-05T20:59:57.978Z,7.30
2023-03-05T21:02:24.557Z,7.20
2023-03-05T21:04:51.203Z,6.90
2023-03-05T21:07:17.767Z,6.90
2023-03-05T21:09:44.351Z,7.00
2023-03-05T21:12:10.962Z,7.30
2023-03-05T21:14:37.565Z,7.30
2023-03-05T21:17:04.165Z,6.80
2023-03-05T21:19:33.334Z,6.90
2023-03-05T21:22:00.212Z,7.10
2023-03-05T21:24:26.794Z,7.20
2023-03-05T21:26:53.374Z,7.20
2023-03-05T21:29:19.949Z,7.50
2023-03-05T21:31:46.691Z,7.60
2023-03-05T21:34:13.310Z,7.70
2023-03-05T21:36:40.120Z,7.50
2023-03-05T21:39:06.692Z,7.40
2023-03-05T21:41:33.280Z,7.50
2023-03-05T21:43:59.886Z,7.80
2023-03-05T21:46:26.443Z,7.80
2023-03-05T21:48:53.028Z,7.70
2023-03-05T21:51:19.637Z,7.70
2023-03-05T21:53:46.404Z,7.40
2023-03-05T21:56:13.106Z,7.40
2023-03-05T21:58:39.746Z,7.30
2023-03-05T22:01:06.362Z,7.40
2023-03-05T22:03:33.011Z,7.10
2023-03-05T22:05:59.643Z,7.40
2023-03-05T22:08:26.199Z,7.30
2023-03-05T22:10:52.806Z,7.40
2023-03-05T22:13:19.388Z,7.60
2023-03-05T22:15:45.940Z,7.40
2023-03-05T22:18:12.557Z,7.50
2023-03-05T22:20:39.123Z,7.80
2023-03-05T22:23:05.701Z,7.80
2023-03-05T22:25:32.283Z,7.70
2023-03-05T22:27:58.848Z,7.50
2023-03-05T22:30:25.460Z,7.40
2023-03-05T22:32:52.034Z,7.30
2023-03-05T22:35:19.762Z,7.10
2023-03-05T22:37:46.376Z,7.10
2023-03-05T22:40:13.340Z,7.10
2023-03-05T22:42:39.904Z,7.40
2023-03-05T22:45:07.493Z,7.50
2023-03-05T22:47:34.080Z,7.80
2023-03-05T22:50:01.274Z,7.40
2023-03-05T22:52:27.867Z,7.50
2023-03-05T22:54:55.985Z,7.30
2023-03-05T22:57:22.691Z,7.50
2023-03-05T22:59:49.239Z,7.20
2023-03-05T23:02:15.797Z,7.20
2023-03-05T23:04:42.419Z,7.10
2023-03-05T23:07:09.051Z,7.00
2023-03-05T23:09:35.680Z,6.70
2023-03-05T23:12:02.272Z,6.80
2023-03-05T23:14:28.891Z,7.00
2023-03-05T23:16:55.449Z,7.10
2023-03-05T23:19:22.054Z,7.30
2023-03-05T23:21:48.626Z,7.00
2023-03-05T23:24:15.178Z,6.90
2023-03-05T23:26:41.776Z,6.90
2023-03-05T23:29:08.523Z,6.90
2023-03-05T23:31:35.137Z,7.10
2023-03-05T23:34:01.699Z,7.30
2023-03-05T23:36:28.269Z,7.30
2023-03-05T23:38:54.887Z,7.20
2023-03-05T23:41:21.469Z,7.00
2023-03-05T23:43:48.109Z,7.00
2023-03-05T23:46:17.772Z,7.00
2023-03-05T23:48:44.412Z,7.00
2023-03-05T23:51:10.976Z,7.10
2023-03-05T23:53:37.588Z,7.10
2023-03-05T23:56:05.175Z,7.00
2023-03-05T23:58:31.760Z,7.20
